Time;durP1;ratioP1;P1;durP2;ratioP2;P2;SDS_P1;SDS_P2;PMS_P1;PMS_P2;Temp;Humidity;BMP_temperature;BMP_pressure;BME280_temperature;BME280_humidity;BME280_pressure;Samples;Min_cycle;Max_cycle;Signal;HPM_P1;HPM_P2
2023/09/30 00:01:26;;;;;;;;;;;;;;;20.24;100.00;98552.94;5122395;28;19931;-67
2023/09/30 00:03:53;;;;;;;;;;;;;;;20.24;100.00;98560.31;5122882;28;19996;-67
2023/09/30 00:06:19;;;;;;;;;;;;;;;20.22;100.00;98560.59;5122909;28;19924;-67
2023/09/30 00:08:46;;;;;;;;;;;;;;;20.19;100.00;98558.50;5113553;28;19947;-67
2023/09/30 00:11:16;;;;;;;;;;;;;;;20.13;100.00;98557.03;5121767;28;19936;-67
2023/09/30 00:13:42;;;;;;;;;;;;;;;20.15;100.00;98565.66;5122141;28;19924;-67
2023/09/30 00:16:09;;;;;;;;;;;;;;;20.16;100.00;98559.13;5096208;28;19990;-67
2023/09/30 00:18:36;;;;;;;;;;;;;;;20.13;100.00;98570.59;5119333;28;20268;-69
2023/09/30 00:21:03;;;;;;;;;;;;;;;20.11;100.00;98570.13;5117141;28;20338;-68
2023/09/30 00:23:30;;;;;;;;;;;;;;;20.15;100.00;98581.13;5121308;28;20362;-67
2023/09/30 00:25:56;;;;;;;;;;;;;;;20.14;100.00;98572.22;5121622;28;19947;-67
2023/09/30 00:28:22;;;;;;;;;;;;;;;20.15;100.00;98575.69;5122080;28;19924;-67
2023/09/30 00:30:50;;;;;;;;;;;;;;;20.15;100.00;98584.63;5120804;28;19935;-68
2023/09/30 00:33:16;;;;;;;;;;;;;;;20.14;100.00;98588.47;5116659;28;19932;-67
2023/09/30 00:35:44;;;;;;;;;;;;;;;20.15;100.00;98598.19;5119210;28;20597;-67
2023/09/30 00:38:10;;;;;;;;;;;;;;;20.11;100.00;98591.00;5102867;28;19960;-67
2023/09/30 00:40:37;;;;;;;;;;;;;;;20.09;100.00;98594.00;5121998;28;19924;-67
2023/09/30 00:43:03;;;;;;;;;;;;;;;20.10;100.00;98595.63;5122142;28;19949;-66
2023/09/30 00:45:31;;;;;;;;;;;;;;;20.10;100.00;98583.97;5112022;28;19924;-67
2023/09/30 00:47:57;;;;;;;;;;;;;;;20.09;100.00;98599.44;5118519;28;19951;-66
2023/09/30 00:50:23;;;;;;;;;;;;;;;20.09;100.00;98607.56;5120007;28;19959;-67
2023/09/30 00:52:51;;;;;;;;;;;;;;;20.10;100.00;98606.47;5120665;28;19995;-67
2023/09/30 00:55:18;;;;;;;;;;;;;;;20.09;100.00;98604.06;5120751;28;20067;-67
2023/09/30 00:57:45;;;;;;;;;;;;;;;20.06;100.00;98605.47;5111503;28;19925;-67
2023/09/30 01:00:12;;;;;;;;;;;;;;;20.03;100.00;98600.66;5119416;28;19987;-67
2023/09/30 01:02:40;;;;;;;;;;;;;;;20.01;100.00;98600.19;5119919;28;19924;-67
2023/09/30 01:05:07;;;;;;;;;;;;;;;20.01;100.00;98597.47;5120727;28;19924;-67
2023/09/30 01:07:34;;;;;;;;;;;;;;;20.00;100.00;98600.47;5116501;28;19946;-67
2023/09/30 01:10:02;;;;;;;;;;;;;;;19.95;100.00;98601.41;5115188;28;19924;-67
2023/09/30 01:12:28;;;;;;;;;;;;;;;19.94;100.00;98605.22;5104648;28;19924;-67
2023/09/30 01:14:58;;;;;;;;;;;;;;;19.94;100.00;98603.31;5119956;28;19987;-67
2023/09/30 01:17:24;;;;;;;;;;;;;;;19.90;100.00;98604.22;5122120;28;19923;-67
2023/09/30 01:19:52;;;;;;;;;;;;;;;19.89;100.00;98606.16;5119599;28;20004;-67
2023/09/30 01:22:20;;;;;;;;;;;;;;;19.88;100.00;98599.13;5115572;28;19924;-67
2023/09/30 01:24:47;;;;;;;;;;;;;;;19.85;100.00;98605.16;5116940;28;19930;-67
2023/09/30 01:27:16;;;;;;;;;;;;;;;19.84;100.00;98606.25;5119582;28;20019;-68
2023/09/30 01:29:42;;;;;;;;;;;;;;;19.81;100.00;98606.06;5119536;28;19924;-68
2023/09/30 01:32:09;;;;;;;;;;;;;;;19.80;100.00;98601.75;5102910;28;19951;-68
2023/09/30 01:34:36;;;;;;;;;;;;;;;19.77;100.00;98607.78;5115887;28;20014;-68
2023/09/30 01:37:02;;;;;;;;;;;;;;;19.77;100.00;98597.75;5114440;28;19931;-68
2023/09/30 01:39:30;;;;;;;;;;;;;;;19.77;100.00;98602.38;5118985;28;19959;-68
2023/09/30 01:41:57;;;;;;;;;;;;;;;19.76;100.00;98600.75;5119438;28;20417;-68
2023/09/30 01:44:23;;;;;;;;;;;;;;;19.76;100.00;98601.56;5120743;28;19934;-68
2023/09/30 01:46:49;;;;;;;;;;;;;;;19.76;100.00;98611.59;5117572;28;19945;-68
2023/09/30 01:49:18;;;;;;;;;;;;;;;19.74;100.00;98603.00;5047875;28;1818703;-66
2023/09/30 01:51:45;;;;;;;;;;;;;;;19.73;100.00;98602.19;5120601;28;19920;-67
2023/09/30 01:54:12;;;;;;;;;;;;;;;19.71;100.00;98604.38;5120852;28;19924;-67
2023/09/30 01:56:39;;;;;;;;;;;;;;;19.70;100.00;98601.97;5118682;28;19948;-67
2023/09/30 01:59:06;;;;;;;;;;;;;;;19.68;100.00;98604.97;5115330;28;19924;-67
2023/09/30 02:01:32;;;;;;;;;;;;;;;19.68;100.00;98612.34;5119491;28;19924;-67
2023/09/30 02:03:59;;;;;;;;;;;;;;;19.70;100.00;98599.28;5120123;28;20525;-67
2023/09/30 02:06:25;;;;;;;;;;;;;;;19.68;100.00;98604.22;5120088;28;19931;-67
2023/09/30 02:08:51;;;;;;;;;;;;;;;19.70;100.00;98601.97;5119785;28;19920;-67
2023/09/30 02:11:18;;;;;;;;;;;;;;;19.70;100.00;98607.41;5114750;28;19980;-66
2023/09/30 02:13:46;;;;;;;;;;;;;;;19.70;100.00;98607.41;5117256;28;19931;-67
2023/09/30 02:16:12;;;;;;;;;;;;;;;19.70;100.00;98608.22;5118373;28;19955;-66
2023/09/30 02:18:40;;;;;;;;;;;;;;;19.66;100.00;98595.56;5119656;28;20133;-66
2023/09/30 02:21:07;;;;;;;;;;;;;;;19.70;100.00;98613.63;5120332;28;19923;-67
2023/09/30 02:23:34;;;;;;;;;;;;;;;19.69;100.00;98605.78;5115737;28;19920;-67
2023/09/30 02:26:00;;;;;;;;;;;;;;;19.70;100.00;98607.41;5114928;28;20041;-67
2023/09/30 02:28:26;;;;;;;;;;;;;;;19.69;100.00;98608.50;5108267;28;19924;-67
2023/09/30 02:30:54;;;;;;;;;;;;;;;19.66;100.00;98607.22;5119428;28;20471;-67
2023/09/30 02:33:21;;;;;;;;;;;;;;;19.66;100.00;98611.81;5122730;28;19926;-67
2023/09/30 02:35:47;;;;;;;;;;;;;;;19.69;100.00;98616.63;5120866;28;19928;-67
2023/09/30 02:38:15;;;;;;;;;;;;;;;19.71;100.00;98619.88;5114123;28;19920;-67
2023/09/30 02:40:46;;;;;;;;;;;;;;;19.70;100.00;98610.13;5117162;28;19966;-67
2023/09/30 02:43:12;;;;;;;;;;;;;;;19.70;100.00;98615.53;5118483;28;19924;-67
2023/09/30 02:45:39;;;;;;;;;;;;;;;19.72;100.00;98622.25;5111112;28;19946;-67
2023/09/30 02:48:08;;;;;;;;;;;;;;;19.62;100.00;98624.41;5110855;28;19946;-67
2023/09/30 02:50:34;;;;;;;;;;;;;;;19.60;100.00;98627.41;5117661;28;19924;-67
2023/09/30 02:53:01;;;;;;;;;;;;;;;19.63;100.00;98623.28;5118865;28;19924;-67
2023/09/30 02:55:27;;;;;;;;;;;;;;;19.62;100.00;98618.97;5110714;28;19924;-67
2023/09/30 02:57:54;;;;;;;;;;;;;;;19.69;100.00;98619.34;5119335;28;19949;-68
2023/09/30 03:00:26;;;;;;;;;;;;;;;19.68;100.00;98620.47;5114001;28;19958;-68
2023/09/30 03:02:53;;;;;;;;;;;;;;;19.61;100.00;98615.47;5115754;28;19977;-68
2023/09/30 03:05:21;;;;;;;;;;;;;;;19.49;100.00;98607.06;5119164;28;19932;-68
2023/09/30 03:07:50;;;;;;;;;;;;;;;19.51;100.00;98610.25;5119019;28;19987;-67
2023/09/30 03:10:20;;;;;;;;;;;;;;;19.56;100.00;98615.56;5120278;28;19930;-67
2023/09/30 03:12:46;;;;;;;;;;;;;;;19.62;100.00;98610.84;5116878;28;19923;-67
2023/09/30 03:15:13;;;;;;;;;;;;;;;19.59;100.00;98612.22;5111816;28;19946;-67
2023/09/30 03:17:39;;;;;;;;;;;;;;;19.59;100.00;98603.31;5115601;28;19928;-67
2023/09/30 03:20:12;;;;;;;;;;;;;;;19.55;100.00;98610.44;5118488;28;20658;-66
2023/09/30 03:22:42;;;;;;;;;;;;;;;19.49;100.00;98617.09;5119808;28;19956;-67
2023/09/30 03:25:09;;;;;;;;;;;;;;;19.45;100.00;98619.59;5118386;28;19923;-66
2023/09/30 03:27:36;;;;;;;;;;;;;;;19.44;100.00;98625.31;5114262;28;19951;-66
2023/09/30 03:30:03;;;;;;;;;;;;;;;19.42;100.00;98630.22;5113188;28;19928;-67
2023/09/30 03:32:30;;;;;;;;;;;;;;;19.44;100.00;98636.13;5118002;28;19964;-66
2023/09/30 03:34:58;;;;;;;;;;;;;;;19.39;100.00;98629.75;5119749;28;19930;-66
2023/09/30 03:37:26;;;;;;;;;;;;;;;19.46;100.00;98633.94;5114499;28;19924;-66
2023/09/30 03:39:54;;;;;;;;;;;;;;;19.32;100.00;98642.84;5115577;28;19951;-67
2023/09/30 03:42:21;;;;;;;;;;;;;;;19.36;100.00;98643.84;5119152;28;19928;-67
2023/09/30 03:44:48;;;;;;;;;;;;;;;19.37;100.00;98637.31;5100914;28;19987;-67
2023/09/30 03:47:14;;;;;;;;;;;;;;;19.42;100.00;98650.00;5120365;28;19923;-67
2023/09/30 03:49:41;;;;;;;;;;;;;;;19.48;100.00;98643.38;5118341;28;19969;-67
2023/09/30 03:52:08;;;;;;;;;;;;;;;19.46;100.00;98642.06;5116258;28;19924;-68
2023/09/30 03:54:34;;;;;;;;;;;;;;;19.43;100.00;98637.25;5119597;28;19976;-68
2023/09/30 03:57:03;;;;;;;;;;;;;;;19.37;100.00;98631.13;5119548;28;20703;-68
2023/09/30 03:59:30;;;;;;;;;;;;;;;19.33;100.00;98639.03;5111308;28;19989;-68
2023/09/30 04:01:57;;;;;;;;;;;;;;;19.37;100.00;98629.19;5118227;28;19962;-68
2023/09/30 04:04:24;;;;;;;;;;;;;;;19.40;100.00;98638.69;5113149;28;19923;-68
2023/09/30 04:06:51;;;;;;;;;;;;;;;19.31;100.00;98645.88;5114644;28;19924;-68
2023/09/30 04:09:17;;;;;;;;;;;;;;;19.26;100.00;98646.75;5117960;28;19930;-68
2023/09/30 04:11:44;;;;;;;;;;;;;;;19.36;100.00;98643.84;5118592;28;19955;-68
2023/09/30 04:14:12;;;;;;;;;;;;;;;19.25;100.00;98636.22;5118639;28;20144;-68
2023/09/30 04:16:38;;;;;;;;;;;;;;;19.33;100.00;98641.75;5113836;28;20590;-68
2023/09/30 04:19:07;;;;;;;;;;;;;;;19.40;100.00;98650.28;5113610;28;19924;-67
2023/09/30 04:21:34;;;;;;;;;;;;;;;19.44;100.00;98652.38;5116917;28;19924;-67
2023/09/30 04:24:00;;;;;;;;;;;;;;;19.39;100.00;98646.00;5117633;28;19935;-67
2023/09/30 04:26:27;;;;;;;;;;;;;;;19.38;100.00;98647.06;5113763;28;19958;-67
2023/09/30 04:28:54;;;;;;;;;;;;;;;19.38;100.00;98643.53;5113789;28;19942;-67
2023/09/30 04:31:23;;;;;;;;;;;;;;;19.36;100.00;98646.56;5117697;28;20367;-67
2023/09/30 04:33:50;;;;;;;;;;;;;;;19.36;100.00;98665.53;5117884;28;19924;-67
2023/09/30 04:36:17;;;;;;;;;;;;;;;19.39;100.00;98666.81;5118351;28;19923;-67
2023/09/30 04:38:43;;;;;;;;;;;;;;;19.40;100.00;98657.63;5116614;28;19919;-67
2023/09/30 04:41:10;;;;;;;;;;;;;;;19.35;100.00;98661.22;5112764;28;19924;-67
2023/09/30 04:43:38;;;;;;;;;;;;;;;19.32;100.00;98669.94;5118843;28;19924;-67
2023/09/30 04:46:07;;;;;;;;;;;;;;;19.39;100.00;98674.94;5120137;28;19924;-67
2023/09/30 04:48:34;;;;;;;;;;;;;;;19.39;100.00;98672.25;5121482;28;19972;-67
2023/09/30 04:51:04;;;;;;;;;;;;;;;19.39;100.00;98673.09;5122676;28;19928;-67
2023/09/30 04:53:31;;;;;;;;;;;;;;;19.42;100.00;98676.28;5113723;28;19924;-67
2023/09/30 04:55:58;;;;;;;;;;;;;;;19.43;100.00;98675.19;5117057;28;19932;-67
2023/09/30 04:58:25;;;;;;;;;;;;;;;19.36;100.00;98684.50;5120867;28;19987;-67
2023/09/30 05:00:51;;;;;;;;;;;;;;;19.35;100.00;98676.66;5120956;28;19931;-67
2023/09/30 05:03:19;;;;;;;;;;;;;;;19.27;100.00;98678.16;5122367;28;19920;-67
2023/09/30 05:05:46;;;;;;;;;;;;;;;19.27;100.00;98677.38;5118979;28;19923;-67
2023/09/30 05:08:14;;;;;;;;;;;;;;;19.27;100.00;98678.16;5116068;28;19924;-67
2023/09/30 05:10:40;;;;;;;;;;;;;;;19.25;100.00;98677.66;5119052;28;19946;-67
2023/09/30 05:13:07;;;;;;;;;;;;;;;19.19;100.00;98688.88;5120825;28;19953;-67
2023/09/30 05:15:35;;;;;;;;;;;;;;;19.21;100.00;98692.91;5112799;28;19989;-67
2023/09/30 05:18:01;;;;;;;;;;;;;;;19.17;100.00;98696.50;5112341;28;19935;-67
2023/09/30 05:20:28;;;;;;;;;;;;;;;19.12;100.00;98693.91;5104062;28;19924;-67
2023/09/30 05:22:56;;;;;;;;;;;;;;;19.15;100.00;98688.69;5120450;28;19930;-67
2023/09/30 05:25:26;;;;;;;;;;;;;;;19.14;100.00;98691.69;5120640;28;19959;-67
2023/09/30 05:27:52;;;;;;;;;;;;;;;19.14;100.00;98695.22;5120664;28;19924;-67
2023/09/30 05:30:20;;;;;;;;;;;;;;;19.12;100.00;98692.00;5115527;28;20003;-67
2023/09/30 05:32:46;;;;;;;;;;;;;;;19.15;100.00;98696.81;5117781;28;20043;-67
2023/09/30 05:35:13;;;;;;;;;;;;;;;19.19;100.00;98689.69;5120536;28;19925;-67
2023/09/30 05:37:40;;;;;;;;;;;;;;;19.13;100.00;98684.66;5120492;28;19924;-66
2023/09/30 05:40:16;;;;;;;;;;;;;;;19.11;100.00;98684.16;5121716;28;19924;-66
2023/09/30 05:42:43;;;;;;;;;;;;;;;19.11;100.00;98682.25;5117743;28;19924;-66
2023/09/30 05:45:11;;;;;;;;;;;;;;;19.18;100.00;98693.50;5113501;28;19931;-66
2023/09/30 05:47:38;;;;;;;;;;;;;;;19.21;100.00;98692.09;5097999;28;19924;-66
2023/09/30 05:50:07;;;;;;;;;;;;;;;19.21;100.00;98700.22;5119805;28;19935;-67
2023/09/30 05:52:34;;;;;;;;;;;;;;;19.23;100.00;98690.69;5121634;28;20023;-67
2023/09/30 05:55:01;;;;;;;;;;;;;;;19.24;100.00;98692.31;5100825;28;19928;-67
2023/09/30 05:57:29;;;;;;;;;;;;;;;19.25;100.00;98699.31;5109055;28;19927;-67
2023/09/30 05:59:56;;;;;;;;;;;;;;;19.26;100.00;98703.63;5115860;28;19924;-67
2023/09/30 06:02:22;;;;;;;;;;;;;;;19.30;100.00;98696.53;5120102;28;19928;-67
2023/09/30 06:04:50;;;;;;;;;;;;;;;19.15;100.00;98699.53;5101366;28;19924;-67
2023/09/30 06:07:18;;;;;;;;;;;;;;;19.04;100.00;98698.09;5114491;28;19931;-67
2023/09/30 06:09:44;;;;;;;;;;;;;;;19.06;100.00;98701.31;5117393;28;19931;-67
2023/09/30 06:12:11;;;;;;;;;;;;;;;19.18;100.00;98709.75;5120370;28;19924;-67
2023/09/30 06:14:39;;;;;;;;;;;;;;;19.26;100.00;98714.47;5120044;28;19928;-66
2023/09/30 06:17:05;;;;;;;;;;;;;;;19.30;100.00;98723.63;5120327;28;19923;-67
2023/09/30 06:19:32;;;;;;;;;;;;;;;19.29;100.00;98738.25;5115646;28;19928;-67
2023/09/30 06:21:58;;;;;;;;;;;;;;;19.33;100.00;98733.84;5115386;28;19924;-66
2023/09/30 06:24:25;;;;;;;;;;;;;;;19.27;100.00;98729.63;5101564;28;19999;-68
2023/09/30 06:26:51;;;;;;;;;;;;;;;19.31;100.00;98740.66;5119893;28;19928;-67
2023/09/30 06:29:17;;;;;;;;;;;;;;;19.30;100.00;98736.34;5120794;28;19924;-67
2023/09/30 06:31:46;;;;;;;;;;;;;;;19.28;100.00;98733.16;5117307;28;19924;-68
2023/09/30 06:34:12;;;;;;;;;;;;;;;19.27;100.00;98734.25;5114802;28;19927;-67
2023/09/30 06:36:39;;;;;;;;;;;;;;;19.24;100.00;98735.66;5117898;28;19924;-67
2023/09/30 06:39:06;;;;;;;;;;;;;;;19.24;100.00;98730.22;5119406;28;19927;-67
2023/09/30 06:41:33;;;;;;;;;;;;;;;19.21;100.00;98730.81;5120631;28;19931;-67
2023/09/30 06:43:59;;;;;;;;;;;;;;;19.22;100.00;98724.28;5119346;28;19924;-68
2023/09/30 06:46:26;;;;;;;;;;;;;;;19.21;100.00;98725.41;5114457;28;19991;-67
2023/09/30 06:48:53;;;;;;;;;;;;;;;19.21;100.00;98722.69;5097699;28;19950;-67
2023/09/30 06:51:20;;;;;;;;;;;;;;;19.23;100.00;98728.59;5119176;28;19928;-68
2023/09/30 06:53:46;;;;;;;;;;;;;;;19.22;100.00;98734.31;5120314;28;19924;-67
2023/09/30 06:56:13;;;;;;;;;;;;;;;19.24;100.00;98740.25;5112009;28;19924;-67
2023/09/30 06:58:40;;;;;;;;;;;;;;;19.29;100.00;98740.16;5116662;28;19923;-67
2023/09/30 07:01:06;;;;;;;;;;;;;;;19.27;100.00;98754.00;5100864;28;19931;-67
2023/09/30 07:03:33;;;;;;;;;;;;;;;19.04;100.00;98743.31;5119018;28;20411;-68
2023/09/30 07:06:01;;;;;;;;;;;;;;;19.00;100.00;98762.03;5119280;28;19924;-67
2023/09/30 07:08:29;;;;;;;;;;;;;;;19.07;100.00;98761.66;5113276;28;19966;-66
2023/09/30 07:10:56;;;;;;;;;;;;;;;19.06;100.00;98763.59;5114778;28;19934;-66
2023/09/30 07:13:22;;;;;;;;;;;;;;;18.96;100.00;98769.16;5118545;28;20655;-66
2023/09/30 07:15:49;;;;;;;;;;;;;;;18.98;100.00;98772.38;5117113;28;20426;-66
2023/09/30 07:18:15;;;;;;;;;;;;;;;19.11;100.00;98777.03;5119959;28;19931;-67
2023/09/30 07:20:42;;;;;;;;;;;;;;;19.05;100.00;98770.09;5116347;28;19924;-67
2023/09/30 07:23:10;;;;;;;;;;;;;;;19.17;100.00;98773.13;5114678;28;19924;-67
2023/09/30 07:25:36;;;;;;;;;;;;;;;19.15;100.00;98778.06;5117560;28;19928;-66
2023/09/30 07:28:03;;;;;;;;;;;;;;;19.20;100.00;98783.38;5119081;28;19932;-66
2023/09/30 07:30:29;;;;;;;;;;;;;;;19.22;100.00;98773.03;5120037;28;19924;-66
2023/09/30 07:32:55;;;;;;;;;;;;;;;19.35;100.00;98785.81;5100169;28;19984;-66
2023/09/30 07:35:22;;;;;;;;;;;;;;;19.30;100.00;98782.38;5114779;28;19935;-67
2023/09/30 07:37:51;;;;;;;;;;;;;;;19.33;100.00;98781.78;5116785;28;19924;-68
2023/09/30 07:40:19;;;;;;;;;;;;;;;19.20;100.00;98780.66;5118997;28;19928;-67
2023/09/30 07:42:45;;;;;;;;;;;;;;;19.26;100.00;98792.19;5102028;28;19925;-68
2023/09/30 07:45:16;;;;;;;;;;;;;;;19.26;100.00;98784.06;5116963;28;19970;-67
2023/09/30 07:47:43;;;;;;;;;;;;;;;19.17;100.00;98794.78;5110288;28;19924;-67
2023/09/30 07:50:11;;;;;;;;;;;;;;;19.14;100.00;98800.00;5118006;28;19924;-67
2023/09/30 07:52:39;;;;;;;;;;;;;;;19.10;100.00;98794.38;5118430;28;19967;-66
2023/09/30 07:55:06;;;;;;;;;;;;;;;19.06;100.00;98796.09;5119360;28;19955;-66
2023/09/30 07:57:34;;;;;;;;;;;;;;;19.15;100.00;98802.44;5114595;28;19934;-67
2023/09/30 08:00:00;;;;;;;;;;;;;;;19.27;100.00;98799.25;5113422;28;19924;-67
2023/09/30 08:02:33;;;;;;;;;;;;;;;19.23;100.00;98801.72;5118042;28;19984;-67
2023/09/30 08:04:59;;;;;;;;;;;;;;;19.23;100.00;98804.44;5117730;28;20375;-67
2023/09/30 08:07:25;;;;;;;;;;;;;;;19.04;100.00;98800.97;5119201;28;19924;-67
2023/09/30 08:09:52;;;;;;;;;;;;;;;19.16;100.00;98803.19;5117549;28;19978;-66
2023/09/30 08:12:18;;;;;;;;;;;;;;;19.21;100.00;98819.38;5113271;28;19924;-66
2023/09/30 08:14:46;;;;;;;;;;;;;;;19.22;100.00;98821.78;5115656;28;19924;-66
2023/09/30 08:17:12;;;;;;;;;;;;;;;19.10;100.00;98809.81;5114414;28;19957;-67
2023/09/30 08:19:39;;;;;;;;;;;;;;;19.18;100.00;98809.94;5123771;28;20435;-66
2023/09/30 08:22:06;;;;;;;;;;;;;;;19.17;100.00;98821.88;5122545;28;19928;-67
2023/09/30 08:24:33;;;;;;;;;;;;;;;19.21;100.00;98819.38;5117737;28;19949;-67
2023/09/30 08:26:59;;;;;;;;;;;;;;;19.17;100.00;98829.19;5117423;28;19928;-67
2023/09/30 08:29:25;;;;;;;;;;;;;;;19.12;100.00;98821.16;5122082;28;19946;-67
2023/09/30 08:31:53;;;;;;;;;;;;;;;19.06;100.00;98820.44;5123499;28;19924;-67
2023/09/30 08:34:21;;;;;;;;;;;;;;;19.09;100.00;98816.34;5116349;28;19924;-68
2023/09/30 08:36:47;;;;;;;;;;;;;;;19.00;100.00;98810.78;5118444;28;20072;-68
2023/09/30 08:39:14;;;;;;;;;;;;;;;19.00;100.00;98820.81;5121677;28;19939;-67
2023/09/30 08:41:40;;;;;;;;;;;;;;;19.00;100.00;98824.31;5121923;28;20043;-67
2023/09/30 08:44:06;;;;;;;;;;;;;;;19.07;100.00;98832.06;5123372;28;19920;-67
2023/09/30 08:46:34;;;;;;;;;;;;;;;19.18;100.00;98831.63;5117075;28;19927;-67
2023/09/30 08:49:02;;;;;;;;;;;;;;;19.21;100.00;98828.31;5116899;28;19924;-67
2023/09/30 08:51:29;;;;;;;;;;;;;;;19.21;100.00;98838.34;5106743;28;19969;-67
2023/09/30 08:53:57;;;;;;;;;;;;;;;19.30;100.00;98842.78;5121319;28;20672;-67
2023/09/30 08:56:25;;;;;;;;;;;;;;;19.27;100.00;98858.81;5122168;28;19954;-66
2023/09/30 08:58:52;;;;;;;;;;;;;;;19.30;100.00;98861.75;5120258;28;19931;-66
2023/09/30 09:01:19;;;;;;;;;;;;;;;19.28;100.00;98858.50;5116181;28;20433;-67
2023/09/30 09:03:47;;;;;;;;;;;;;;;19.14;100.00;98859.56;5100553;28;19924;-67
2023/09/30 09:06:15;;;;;;;;;;;;;;;19.08;100.00;98858.03;5103346;28;19982;-67
2023/09/30 09:08:42;;;;;;;;;;;;;;;19.12;100.00;98851.75;5121803;28;19920;-67
2023/09/30 09:11:09;;;;;;;;;;;;;;;19.24;100.00;98851.28;5122084;28;19931;-67
2023/09/30 09:13:46;;;;;;;;;;;;;;;19.23;100.00;98861.31;5118093;28;19931;-67
2023/09/30 09:16:12;;;;;;;;;;;;;;;19.11;100.00;98855.56;5115959;28;19924;-67
2023/09/30 09:18:40;;;;;;;;;;;;;;;19.15;100.00;98856.59;5101544;28;19931;-67
2023/09/30 09:21:10;;;;;;;;;;;;;;;19.10;100.00;98862.06;5121239;28;19947;-67
2023/09/30 09:23:41;;;;;;;;;;;;;;;19.17;100.00;98848.97;5122310;28;19966;-66
2023/09/30 09:26:07;;;;;;;;;;;;;;;19.32;100.00;98843.28;5113330;28;19935;-66
2023/09/30 09:28:35;;;;;;;;;;;;;;;19.35;100.00;98834.56;5119475;28;20619;-67
2023/09/30 09:31:01;;;;;;;;;;;;;;;19.41;100.00;98829.88;5120840;28;19979;-67
2023/09/30 09:33:35;;;;;;;;;;;;;;;19.55;100.00;98829.91;5112278;28;19932;-67
2023/09/30 09:36:02;;;;;;;;;;;;;;;19.69;100.00;98833.44;5121736;28;19928;-67
2023/09/30 09:38:44;;;;;;;;;;;;;;;19.60;100.00;98835.25;5114801;28;19928;-68
2023/09/30 09:41:11;;;;;;;;;;;;;;;19.39;100.00;98840.19;5115378;28;19924;-67
2023/09/30 09:43:38;;;;;;;;;;;;;;;19.40;100.00;98834.50;5119001;28;20269;-67
2023/09/30 09:46:08;;;;;;;;;;;;;;;19.57;100.00;98825.81;5119102;28;19920;-67
2023/09/30 09:48:35;;;;;;;;;;;;;;;19.58;100.00;98826.63;5120391;28;19928;-67
2023/09/30 09:51:02;;;;;;;;;;;;;;;19.66;100.00;98823.19;5121223;28;19920;-67
2023/09/30 09:53:30;;;;;;;;;;;;;;;19.63;100.00;98829.22;5111817;28;20380;-67
2023/09/30 09:55:57;;;;;;;;;;;;;;;19.45;100.00;98827.38;5115956;28;19920;-67
2023/09/30 09:58:25;;;;;;;;;;;;;;;19.52;100.00;98825.09;5119829;28;19928;-67
2023/09/30 10:00:52;;;;;;;;;;;;;;;19.61;100.00;98826.00;5101979;28;19924;-67
2023/09/30 10:03:19;;;;;;;;;;;;;;;19.48;100.00;98826.78;5121208;28;19926;-67
2023/09/30 10:05:46;;;;;;;;;;;;;;;19.47;100.00;98825.97;5117499;28;19935;-67
2023/09/30 10:08:17;;;;;;;;;;;;;;;19.51;100.00;98831.63;5114904;28;19931;-67
2023/09/30 10:10:45;;;;;;;;;;;;;;;19.52;100.00;98828.63;5117706;28;19924;-67
2023/09/30 10:13:39;;;;;;;;;;;;;;;19.66;100.00;98829.44;5119568;28;19958;-67
2023/09/30 10:16:07;;;;;;;;;;;;;;;19.92;100.00;98832.47;5117662;28;19966;-67
2023/09/30 10:18:53;;;;;;;;;;;;;;;20.07;100.00;98834.88;5113252;28;19923;-68
2023/09/30 10:21:20;;;;;;;;;;;;;;;20.15;100.00;98825.22;5113365;28;19984;-68
2023/09/30 10:23:46;;;;;;;;;;;;;;;20.22;100.00;98820.19;5116897;28;20505;-68
2023/09/30 10:26:18;;;;;;;;;;;;;;;20.08;100.00;98836.47;5101357;28;19935;-68
2023/09/30 10:28:46;;;;;;;;;;;;;;;20.23;100.00;98824.50;5119664;28;19928;-68
2023/09/30 10:31:19;;;;;;;;;;;;;;;19.90;100.00;98840.06;5121084;28;19930;-68
2023/09/30 10:34:04;;;;;;;;;;;;;;;19.85;100.00;98832.88;5118102;28;19924;-68
2023/09/30 10:36:31;;;;;;;;;;;;;;;19.80;100.00;98826.75;5095863;28;20035;-67
2023/09/30 10:39:00;;;;;;;;;;;;;;;19.60;100.00;98813.56;5109380;28;19931;-67
2023/09/30 10:41:45;;;;;;;;;;;;;;;19.58;100.00;98823.91;5118572;28;20481;-67
2023/09/30 10:44:31;;;;;;;;;;;;;;;19.66;100.00;98817.78;5119156;28;19999;-67
2023/09/30 10:46:59;;;;;;;;;;;;;;;19.77;100.00;98822.72;5114095;28;19928;-67
2023/09/30 10:49:33;;;;;;;;;;;;;;;19.87;100.00;98825.22;5120446;28;19953;-67
2023/09/30 10:52:00;;;;;;;;;;;;;;;19.96;100.00;98829.97;5118533;28;19970;-67
2023/09/30 10:54:27;;;;;;;;;;;;;;;19.92;100.00;98835.19;5113767;28;19931;-67
2023/09/30 10:56:54;;;;;;;;;;;;;;;20.02;100.00;98845.84;5096739;28;19924;-67
2023/09/30 10:59:20;;;;;;;;;;;;;;;20.07;100.00;98840.28;5118681;28;19924;-67
2023/09/30 11:01:47;;;;;;;;;;;;;;;20.12;100.00;98842.88;5120040;28;19928;-67
2023/09/30 11:04:15;;;;;;;;;;;;;;;20.09;100.00;98843.50;5118705;28;19928;-67
2023/09/30 11:06:42;;;;;;;;;;;;;;;20.11;100.00;98841.31;5110644;28;19980;-67
2023/09/30 11:09:12;;;;;;;;;;;;;;;20.17;100.00;98842.81;5118195;28;19931;-65
2023/09/30 11:11:43;;;;;;;;;;;;;;;20.16;100.00;98848.53;5118758;28;19950;-67
2023/09/30 11:14:19;;;;;;;;;;;;;;;20.17;100.00;98850.13;5119080;28;19928;-67
2023/09/30 11:16:45;;;;;;;;;;;;;;;20.24;100.00;98839.69;5116523;28;19931;-66
2023/09/30 11:19:12;;;;;;;;;;;;;;;20.36;100.00;98842.72;5113509;28;19924;-66
2023/09/30 11:21:40;;;;;;;;;;;;;;;20.40;100.00;98840.97;5117153;28;19924;-66
2023/09/30 11:24:08;;;;;;;;;;;;;;;20.36;100.00;98837.28;5118591;28;19932;-66
2023/09/30 11:26:34;;;;;;;;;;;;;;;20.38;100.00;98835.88;5118477;28;19930;-66
2023/09/30 11:29:07;;;;;;;;;;;;;;;20.43;100.00;98833.03;5119523;28;20014;-67
2023/09/30 11:31:35;;;;;;;;;;;;;;;20.33;100.00;98835.97;5112777;28;19930;-66
2023/09/30 11:34:03;;;;;;;;;;;;;;;20.41;100.00;98829.84;5114354;28;19979;-67
2023/09/30 11:36:30;;;;;;;;;;;;;;;20.39;100.00;98817.69;5106061;28;20072;-67
2023/09/30 11:38:58;;;;;;;;;;;;;;;20.49;100.00;98813.94;5119191;28;20056;-66
2023/09/30 11:41:33;;;;;;;;;;;;;;;20.48;100.00;98807.72;5119796;28;19931;-67
2023/09/30 11:44:01;;;;;;;;;;;;;;;20.57;100.00;98814.03;5118259;28;19923;-67
2023/09/30 11:46:28;;;;;;;;;;;;;;;20.58;100.00;98812.91;5112568;28;20483;-67
2023/09/30 11:48:58;;;;;;;;;;;;;;;20.64;100.00;98805.47;5114650;28;19971;-67
2023/09/30 11:51:25;;;;;;;;;;;;;;;20.66;100.00;98804.03;5118688;28;19924;-67
2023/09/30 11:53:51;;;;;;;;;;;;;;;20.88;100.00;98808.69;5124606;28;19923;-69
2023/09/30 11:56:19;;;;;;;;;;;;;;;20.84;100.00;98804.97;5123005;28;19946;-68
2023/09/30 11:58:46;;;;;;;;;;;;;;;20.77;100.00;98804.59;5113984;28;20022;-69
2023/09/30 12:01:13;;;;;;;;;;;;;;;20.78;100.00;98807.00;5123018;28;19924;-70
2023/09/30 12:03:40;;;;;;;;;;;;;;;20.80;100.00;98809.41;5102725;28;19924;-69
2023/09/30 12:06:06;;;;;;;;;;;;;;;20.80;100.00;98807.50;5123453;28;19930;-68
2023/09/30 12:08:33;;;;;;;;;;;;;;;20.79;100.00;98807.81;5118487;28;19928;-69
2023/09/30 12:11:00;;;;;;;;;;;;;;;20.75;100.00;98795.97;5117759;28;19924;-69
2023/09/30 12:13:28;;;;;;;;;;;;;;;20.76;100.00;98797.56;5122373;28;19935;-68
2023/09/30 12:15:54;;;;;;;;;;;;;;;20.72;100.00;98800.09;5120731;28;19924;-68
2023/09/30 12:18:23;;;;;;;;;;;;;;;20.74;100.00;98797.88;5123432;28;19924;-69
2023/09/30 12:20:50;;;;;;;;;;;;;;;20.78;100.00;98806.22;5121051;28;19984;-69
2023/09/30 12:23:17;;;;;;;;;;;;;;;20.80;100.00;98809.41;5116896;28;19928;-69
2023/09/30 12:25:44;;;;;;;;;;;;;;;20.81;100.00;98802.88;5119907;28;19924;-69
2023/09/30 12:28:10;;;;;;;;;;;;;;;20.90;100.00;98809.16;5122111;28;19935;-69
2023/09/30 12:30:39;;;;;;;;;;;;;;;20.87;100.00;98815.22;5123545;28;20015;-68
2023/09/30 12:33:06;;;;;;;;;;;;;;;20.77;100.00;98807.31;5124032;28;19963;-70
2023/09/30 12:35:33;;;;;;;;;;;;;;;20.71;100.00;98803.09;5118163;28;19953;-69
2023/09/30 12:37:59;;;;;;;;;;;;;;;20.76;100.00;98797.56;5099788;28;19934;-69